createdAt,value
2018-09-25T00:00:32.125Z,59.46
2018-09-25T00:01:31.979Z,59.34
2018-09-25T00:02:32.270Z,59.62
2018-09-25T00:03:32.044Z,59.51
2018-09-25T00:04:32.325Z,59.63
2018-09-25T00:05:32.057Z,59.56
2018-09-25T00:06:32.243Z,59.48
2018-09-25T00:07:32.045Z,59.69
2018-09-25T00:08:32.075Z,59.58
2018-09-25T00:09:32.171Z,59.54
2018-09-25T00:10:32.167Z,59.54
2018-09-25T00:11:31.979Z,59.5
2018-09-25T00:12:32.288Z,59.77
2018-09-25T00:13:32.211Z,59.55
2018-09-25T00:14:32.163Z,59.71
2018-09-25T00:15:32.159Z,59.57
2018-09-25T00:16:32.049Z,59.61
2018-09-25T00:17:32.048Z,59.64
2018-09-25T00:18:32.319Z,59.54
2018-09-25T00:19:31.942Z,59.6
2018-09-25T00:20:32.311Z,59.66
2018-09-25T00:21:32.220Z,59.57
2018-09-25T00:22:31.949Z,59.58
2018-09-25T00:23:32.256Z,59.52
2018-09-25T00:24:32.194Z,59.58
2018-09-25T00:25:32.131Z,59.43
2018-09-25T00:26:32.112Z,59.51
2018-09-25T00:27:32.096Z,59.54
2018-09-25T00:28:32.066Z,59.6
2018-09-25T00:29:32.006Z,59.6
2018-09-25T00:30:32.040Z,59.51
2018-09-25T00:31:32.074Z,59.55
2018-09-25T00:32:32.305Z,59.53
2018-09-25T00:33:32.029Z,59.56
2018-09-25T00:34:32.106Z,59.57
2018-09-25T00:35:31.802Z,59.45
2018-09-25T00:36:31.872Z,59.5
2018-09-25T00:37:32.615Z,59.65
2018-09-25T00:38:31.990Z,59.49
2018-09-25T00:39:32.080Z,59.32
2018-09-25T00:40:32.236Z,59.47
2018-09-25T00:41:31.851Z,59.51
2018-09-25T00:42:32.016Z,59.58
2018-09-25T00:43:32.023Z,59.65
2018-09-25T00:44:31.877Z,59.59
2018-09-25T00:45:32.088Z,59.29
2018-09-25T00:46:32.016Z,59.4
2018-09-25T00:47:32.151Z,59.51
2018-09-25T00:48:32.075Z,59.52
2018-09-25T00:49:31.926Z,59.38
2018-09-25T00:50:32.015Z,59.44
2018-09-25T00:51:31.933Z,59.46
2018-09-25T00:52:32.096Z,59.67
2018-09-25T00:53:32.143Z,59.63
2018-09-25T00:54:32.341Z,59.6
2018-09-25T00:55:32.141Z,59.4
2018-09-25T00:56:31.987Z,59.54
2018-09-25T00:57:32.139Z,59.48
2018-09-25T00:58:32.013Z,59.44
2018-09-25T00:59:32.237Z,59.5
2018-09-25T01:00:32.153Z,59.53
2018-09-25T01:01:32.202Z,59.48
2018-09-25T01:02:31.895Z,59.5
2018-09-25T01:03:32.496Z,59.51
2018-09-25T01:04:31.906Z,59.54
2018-09-25T01:05:32.233Z,59.68
2018-09-25T01:06:32.189Z,59.53
2018-09-25T01:07:31.951Z,59.42
2018-09-25T01:08:32.041Z,59.47
2018-09-25T01:09:32.011Z,59.33
2018-09-25T01:10:31.967Z,59.61
2018-09-25T01:11:32.258Z,59.57
2018-09-25T01:12:31.801Z,59.56
2018-09-25T01:13:32.139Z,59.56
2018-09-25T01:14:32.120Z,59.48
2018-09-25T01:15:32.314Z,59.43
2018-09-25T01:16:32.089Z,59.33
2018-09-25T01:17:32.199Z,59.56
2018-09-25T01:18:32.052Z,59.55
2018-09-25T01:19:32.389Z,59.58
2018-09-25T01:20:32.113Z,59.42
2018-09-25T01:21:32.032Z,59.49
2018-09-25T01:22:31.996Z,59.49
2018-09-25T01:23:32.008Z,59.57
2018-09-25T01:24:32.108Z,59.43
2018-09-25T01:25:32.101Z,59.5
2018-09-25T01:26:31.932Z,59.54
2018-09-25T01:27:31.908Z,59.5
2018-09-25T01:28:32.223Z,59.5
2018-09-25T01:29:32.088Z,59.39
2018-09-25T01:30:31.993Z,59.57
2018-09-25T01:31:32.094Z,59.52
2018-09-25T01:32:32.064Z,59.59
2018-09-25T01:33:32.174Z,59.56
2018-09-25T01:34:32.178Z,59.53
2018-09-25T01:35:32.130Z,59.57
2018-09-25T01:36:32.122Z,59.42
2018-09-25T01:37:32.102Z,59.44
2018-09-25T01:38:32.018Z,59.37
2018-09-25T01:39:32.018Z,59.48
2018-09-25T01:40:32.270Z,59.58
2018-09-25T01:41:32.064Z,59.53
2018-09-25T01:42:32.340Z,59.51
2018-09-25T01:43:32.012Z,59.44
2018-09-25T01:44:32.030Z,59.5
2018-09-25T01:45:32.138Z,59.49
2018-09-25T01:46:32.011Z,59.57
2018-09-25T01:47:32.244Z,59.34
2018-09-25T01:48:32.109Z,59.42
2018-09-25T01:49:32.146Z,59.52
2018-09-25T01:50:32.118Z,59.28
2018-09-25T01:51:32.059Z,59.45
2018-09-25T01:52:32.235Z,59.59
2018-09-25T01:53:31.904Z,59.53
2018-09-25T01:54:32.462Z,59.39
2018-09-25T01:55:32.010Z,59.42
2018-09-25T01:56:31.901Z,59.45
2018-09-25T01:57:31.943Z,59.51
2018-09-25T01:58:32.050Z,59.37
2018-09-25T01:59:32.013Z,59.46
2018-09-25T02:00:31.953Z,59.47
2018-09-25T02:01:31.898Z,59.38
2018-09-25T02:02:31.847Z,59.45
2018-09-25T02:03:32.054Z,59.49
2018-09-25T02:04:31.815Z,59.4
2018-09-25T02:05:31.877Z,59.47
2018-09-25T02:06:32.167Z,59.46
2018-09-25T02:07:31.769Z,59.51
2018-09-25T02:08:32.024Z,59.47
2018-09-25T02:09:32.061Z,59.49
2018-09-25T02:10:31.901Z,59.55
2018-09-25T02:11:31.934Z,59.39
2018-09-25T02:12:31.899Z,59.52
2018-09-25T02:13:32.304Z,59.44
2018-09-25T02:14:32.128Z,59.47
2018-09-25T02:15:31.996Z,59.53
2018-09-25T02:16:31.939Z,59.53
2018-09-25T02:17:31.787Z,59.55
2018-09-25T02:18:31.908Z,59.43
2018-09-25T02:19:32.285Z,59.38
2018-09-25T02:20:31.937Z,59.41
2018-09-25T02:21:31.911Z,59.42
2018-09-25T02:22:32.072Z,59.48
2018-09-25T02:23:31.992Z,59.38
2018-09-25T02:24:31.808Z,59.4
2018-09-25T02:25:31.973Z,59.5
2018-09-25T02:26:31.965Z,59.34
2018-09-25T02:27:32.111Z,59.49
2018-09-25T02:28:31.936Z,59.31
2018-09-25T02:29:32.033Z,59.43
2018-09-25T02:30:31.836Z,59.41
2018-09-25T02:31:31.937Z,59.37
2018-09-25T02:32:31.910Z,59.52
2018-09-25T02:33:32.035Z,59.46
2018-09-25T02:34:31.841Z,59.47
2018-09-25T02:35:32.163Z,59.42
2018-09-25T02:36:32.393Z,59.5
2018-09-25T02:37:32.503Z,59.41
2018-09-25T02:38:32.057Z,59.39
2018-09-25T02:39:32.293Z,59.51
2018-09-25T02:40:32.176Z,59.49
2018-09-25T02:41:32.031Z,59.37
2018-09-25T02:42:32.214Z,59.46
2018-09-25T02:43:31.934Z,59.43
2018-09-25T02:44:31.969Z,59.41
2018-09-25T02:45:32.126Z,59.46
2018-09-25T02:46:31.880Z,59.51
2018-09-25T02:47:32.178Z,59.44
2018-09-25T02:48:32.061Z,59.3
2018-09-25T02:49:31.894Z,59.41
2018-09-25T02:50:31.984Z,59.5
2018-09-25T02:51:31.773Z,59.48
2018-09-25T02:52:32.108Z,59.43
2018-09-25T02:53:32.069Z,59.43
2018-09-25T02:54:31.896Z,59.53
2018-09-25T02:55:31.836Z,59.52
2018-09-25T02:56:32.008Z,59.46
2018-09-25T02:57:31.851Z,59.34
2018-09-25T02:58:32.005Z,59.36
2018-09-25T02:59:31.988Z,59.42
2018-09-25T03:00:32.137Z,59.45
2018-09-25T03:01:32.030Z,59.48
2018-09-25T03:02:32.064Z,59.45
2018-09-25T03:03:32.352Z,59.5
2018-09-25T03:04:31.949Z,59.62
2018-09-25T03:05:32.289Z,59.44
2018-09-25T03:06:32.277Z,59.48
2018-09-25T03:07:31.959Z,59.38
2018-09-25T03:08:32.052Z,59.48
2018-09-25T03:09:31.858Z,59.49
2018-09-25T03:10:32.119Z,59.35
2018-09-25T03:11:32.318Z,59.42
2018-09-25T03:12:32.086Z,59.37
2018-09-25T03:13:31.990Z,59.54
2018-09-25T03:14:31.965Z,59.42
2018-09-25T03:15:31.906Z,59.31
2018-09-25T03:16:32.091Z,59.39
2018-09-25T03:17:31.937Z,59.39
2018-09-25T03:18:32.036Z,59.38
2018-09-25T03:19:31.775Z,59.43
2018-09-25T03:20:32.063Z,59.42
2018-09-25T03:21:32.003Z,59.39
2018-09-25T03:22:31.891Z,59.14
2018-09-25T03:23:31.940Z,59.33
2018-09-25T03:24:32.129Z,59.46
2018-09-25T03:25:32.244Z,59.36
2018-09-25T03:26:32.001Z,59.29
2018-09-25T03:27:32.000Z,59.39
2018-09-25T03:28:31.976Z,59.37
2018-09-25T03:29:32.015Z,59.36
2018-09-25T03:30:31.813Z,59.43
2018-09-25T03:31:32.139Z,59.29
2018-09-25T03:32:32.069Z,59.39
2018-09-25T03:33:32.317Z,59.25
2018-09-25T03:34:31.775Z,59.4
2018-09-25T03:35:31.851Z,59.32
2018-09-25T03:36:31.894Z,59.34
2018-09-25T03:37:31.815Z,59.32
2018-09-25T03:38:32.077Z,59.34
2018-09-25T03:39:31.948Z,59.39
2018-09-25T03:40:31.843Z,59.26
2018-09-25T03:41:32.038Z,59.47
2018-09-25T03:42:31.843Z,59.33
2018-09-25T03:43:31.854Z,59.42
2018-09-25T03:44:31.911Z,59.36
2018-09-25T03:45:32.032Z,59.28
2018-09-25T03:46:32.456Z,59.44
2018-09-25T03:47:31.884Z,59.38
2018-09-25T03:48:31.982Z,59.38
2018-09-25T03:49:32.068Z,59.31
2018-09-25T03:50:31.889Z,59.3
2018-09-25T03:51:32.094Z,59.27
2018-09-25T03:52:31.868Z,59.44
2018-09-25T03:53:32.108Z,59.31
2018-09-25T03:54:32.196Z,59.2
2018-09-25T03:55:31.868Z,59.24
2018-09-25T03:56:32.124Z,59.29
2018-09-25T03:57:31.873Z,59.29
2018-09-25T03:58:32.029Z,59.1
2018-09-25T03:59:32.336Z,59.26
2018-09-25T04:00:31.998Z,59.27
2018-09-25T04:01:31.952Z,59.26
2018-09-25T04:02:31.894Z,59.27
2018-09-25T04:03:32.055Z,59.28
2018-09-25T04:04:31.868Z,59.4
2018-09-25T04:05:32.206Z,59.21
2018-09-25T04:06:31.890Z,59.22
2018-09-25T04:07:32.016Z,59.15
2018-09-25T04:08:32.217Z,59.34
2018-09-25T04:09:31.897Z,59.31
2018-09-25T04:10:32.102Z,59.14
2018-09-25T04:11:32.011Z,59.25
2018-09-25T04:12:32.246Z,59.2
2018-09-25T04:13:31.913Z,59.27
2018-09-25T04:14:32.097Z,59.22
2018-09-25T04:15:32.078Z,59.25
2018-09-25T04:16:31.925Z,59.2
2018-09-25T04:17:32.095Z,59.25
2018-09-25T04:18:31.952Z,59.29
2018-09-25T04:19:32.187Z,59.29
2018-09-25T04:20:31.746Z,59.32
2018-09-25T04:21:31.844Z,59.21
2018-09-25T04:22:32.428Z,59.31
2018-09-25T04:23:32.043Z,59.24
2018-09-25T04:24:31.901Z,59.21
2018-09-25T04:25:31.947Z,59.24
2018-09-25T04:26:31.955Z,59.19
2018-09-25T04:27:32.278Z,59.27
2018-09-25T04:28:32.246Z,59.27
2018-09-25T04:29:31.817Z,59.15
2018-09-25T04:30:31.988Z,59.12
2018-09-25T04:31:31.893Z,59.14
2018-09-25T04:32:31.923Z,59.27
2018-09-25T04:33:31.845Z,59.25
2018-09-25T04:34:32.035Z,59.27
2018-09-25T04:35:31.904Z,59.16
2018-09-25T04:36:32.067Z,59.23
2018-09-25T04:37:31.814Z,59.39
2018-09-25T04:38:32.316Z,59.17
2018-09-25T04:39:31.864Z,59.27
2018-09-25T04:40:32.080Z,59.19
2018-09-25T04:41:32.239Z,59.23
2018-09-25T04:42:32.379Z,59.22
2018-09-25T04:43:31.792Z,59.14
2018-09-25T04:44:31.980Z,59.2
2018-09-25T04:45:31.756Z,59.23
2018-09-25T04:46:32.275Z,59.13
2018-09-25T04:47:32.278Z,59.19
2018-09-25T04:48:32.094Z,59.22
2018-09-25T04:49:31.864Z,59.16
2018-09-25T04:50:31.801Z,59.22
2018-09-25T04:51:31.828Z,59.24
2018-09-25T04:52:32.111Z,59.22
2018-09-25T04:53:31.931Z,59.26
2018-09-25T04:54:31.855Z,59.21
2018-09-25T04:55:32.393Z,59.29
2018-09-25T04:56:31.793Z,59.34
2018-09-25T04:57:31.960Z,59.24
2018-09-25T04:58:32.050Z,59.24
2018-09-25T04:59:31.950Z,59.24
2018-09-25T05:00:31.761Z,59.16
2018-09-25T05:01:31.850Z,59.25
2018-09-25T05:02:32.087Z,59.21
2018-09-25T05:03:32.175Z,59.28
2018-09-25T05:04:31.930Z,59.2
2018-09-25T05:05:31.830Z,59.14
2018-09-25T05:06:32.011Z,59.14
2018-09-25T05:07:31.696Z,59.23
2018-09-25T05:08:31.959Z,59.22
2018-09-25T05:09:31.937Z,59.19
2018-09-25T05:10:31.901Z,59.1
2018-09-25T05:11:32.168Z,59.16
2018-09-25T05:12:31.777Z,59.22
2018-09-25T05:13:32.009Z,59.27
2018-09-25T05:14:31.963Z,59.25
2018-09-25T05:15:32.022Z,59.21
2018-09-25T05:16:32.369Z,59.15
2018-09-25T05:17:31.993Z,59.25
2018-09-25T05:18:31.920Z,59.17
2018-09-25T05:19:32.013Z,59.24
2018-09-25T05:20:31.884Z,59.15
2018-09-25T05:21:32.373Z,59.17
2018-09-25T05:22:31.910Z,59.12
2018-09-25T05:23:32.297Z,59.16
2018-09-25T05:24:32.039Z,59.17
2018-09-25T05:25:32.359Z,59.05
2018-09-25T05:26:32.148Z,59.12
2018-09-25T05:27:32.052Z,59.14
2018-09-25T05:28:31.953Z,59.14
2018-09-25T05:29:32.023Z,59.13
2018-09-25T05:30:31.800Z,59.21
2018-09-25T05:31:31.947Z,59.26
2018-09-25T05:32:31.696Z,59.17
2018-09-25T05:33:32.328Z,59.14
2018-09-25T05:34:32.315Z,59.31
2018-09-25T05:35:32.149Z,59.16
2018-09-25T05:36:31.999Z,59.21
2018-09-25T05:37:32.020Z,59.1
2018-09-25T05:38:31.967Z,59.14
2018-09-25T05:39:31.959Z,59.15
2018-09-25T05:40:32.041Z,59.17
2018-09-25T05:41:32.208Z,59.18
2018-09-25T05:42:31.892Z,59.21
2018-09-25T05:43:32.053Z,59.17
2018-09-25T05:44:32.013Z,59.25
2018-09-25T05:45:31.814Z,59.14
2018-09-25T05:46:32.192Z,59.11
2018-09-25T05:47:32.000Z,59.13
2018-09-25T05:48:32.192Z,59.17
2018-09-25T05:49:31.737Z,59.15
2018-09-25T05:50:31.795Z,59.14
2018-09-25T05:51:31.810Z,59.15
2018-09-25T05:52:32.360Z,59.11
2018-09-25T05:53:31.798Z,59.23
2018-09-25T05:54:32.164Z,59.13
2018-09-25T05:55:32.049Z,59.13
2018-09-25T05:56:32.222Z,59.16
2018-09-25T05:57:31.814Z,59.29
2018-09-25T05:58:31.873Z,59.17
2018-09-25T05:59:31.960Z,59.16
2018-09-25T06:00:31.931Z,59.24
2018-09-25T06:01:31.841Z,59.15
2018-09-25T06:02:32.033Z,59.22
2018-09-25T06:03:32.034Z,59.02
2018-09-25T06:04:32.620Z,59.22
2018-09-25T06:05:31.821Z,59.19
2018-09-25T06:06:31.845Z,59.19
2018-09-25T06:07:32.001Z,59.15
2018-09-25T06:08:32.114Z,59.26
2018-09-25T06:09:32.155Z,59.24
2018-09-25T06:10:32.062Z,59.14
2018-09-25T06:11:31.866Z,59.19
2018-09-25T06:12:31.922Z,59.25
2018-09-25T06:13:32.030Z,59.26
2018-09-25T06:14:31.871Z,59.16
2018-09-25T06:15:31.879Z,59.23
2018-09-25T06:16:31.851Z,59.22
2018-09-25T06:17:31.877Z,59.21
2018-09-25T06:18:31.720Z,59.11
2018-09-25T06:19:31.999Z,59.19
2018-09-25T06:20:31.729Z,59.15
2018-09-25T06:21:31.803Z,59.17
2018-09-25T06:22:31.793Z,59.16
2018-09-25T06:23:31.926Z,59.18
2018-09-25T06:24:31.852Z,59.23
2018-09-25T06:25:32.213Z,59.2
2018-09-25T06:26:31.784Z,59.24
2018-09-25T06:27:31.793Z,59.17
2018-09-25T06:28:31.725Z,59.18
2018-09-25T06:29:31.780Z,59.23
2018-09-25T06:30:31.844Z,59.22
2018-09-25T06:31:31.805Z,59.21
2018-09-25T06:32:31.816Z,59.11
2018-09-25T06:33:31.835Z,59.26
2018-09-25T06:34:32.129Z,59.13
2018-09-25T06:35:32.033Z,59.15
2018-09-25T06:36:31.952Z,59.23
2018-09-25T06:37:31.699Z,59.33
2018-09-25T06:38:31.687Z,59.18
2018-09-25T06:39:31.814Z,59.11
2018-09-25T06:40:31.708Z,59.02
2018-09-25T06:41:32.162Z,59.15
2018-09-25T06:42:31.974Z,59.25
2018-09-25T06:43:31.828Z,59.21
2018-09-25T06:44:31.832Z,59.27
2018-09-25T06:45:31.955Z,59.14
2018-09-25T06:46:31.928Z,59.18
2018-09-25T06:47:31.927Z,59.13
2018-09-25T06:48:32.043Z,59.18
2018-09-25T06:49:31.966Z,59.14
2018-09-25T06:50:31.936Z,59.18
2018-09-25T06:51:31.868Z,59.1
2018-09-25T06:52:32.253Z,59.17
2018-09-25T06:53:31.833Z,59.1
2018-09-25T06:54:31.719Z,59.17
2018-09-25T06:55:32.179Z,59.2
2018-09-25T06:56:32.249Z,59.16
2018-09-25T06:57:32.180Z,59.16
2018-09-25T06:58:31.921Z,59.18
2018-09-25T06:59:31.707Z,59.11
2018-09-25T07:00:31.836Z,59.08
2018-09-25T07:01:31.748Z,59.22
2018-09-25T07:02:31.726Z,59.17
2018-09-25T07:03:31.789Z,59.12
2018-09-25T07:04:31.860Z,59.13
2018-09-25T07:05:32.093Z,59.16
2018-09-25T07:06:31.932Z,59.21
2018-09-25T07:07:31.747Z,59.05
2018-09-25T07:08:32.283Z,59.1
2018-09-25T07:09:32.136Z,59.11
2018-09-25T07:10:32.442Z,59.16
2018-09-25T07:11:32.069Z,59.08
2018-09-25T07:12:31.892Z,57.78
2018-09-25T07:13:31.688Z,54.94
2018-09-25T07:14:31.856Z,53.74
2018-09-25T07:15:31.770Z,53.41
2018-09-25T07:16:31.824Z,52.55
2018-09-25T07:17:32.220Z,52.19
2018-09-25T07:18:31.701Z,52.37
2018-09-25T07:19:31.829Z,52.42
2018-09-25T07:20:31.790Z,51.93
2018-09-25T07:21:32.062Z,52.03
2018-09-25T07:22:31.867Z,52.01
2018-09-25T07:23:32.202Z,51.94
2018-09-25T07:24:32.356Z,51.91
2018-09-25T07:25:31.864Z,51.75
2018-09-25T07:26:31.848Z,51.5
2018-09-25T07:27:31.820Z,52.71
2018-09-25T07:28:31.700Z,52.43
2018-09-25T07:29:31.995Z,52.65
2018-09-25T07:30:32.118Z,52.89
2018-09-25T07:31:32.127Z,53.45
2018-09-25T07:32:32.147Z,53.48
2018-09-25T07:33:31.949Z,53.68
2018-09-25T07:34:31.739Z,53.65
2018-09-25T07:35:32.329Z,53.92
2018-09-25T07:36:32.160Z,54.16
2018-09-25T07:37:31.837Z,54.25
2018-09-25T07:38:32.164Z,53.96
2018-09-25T07:39:32.175Z,54.26
2018-09-25T07:40:31.786Z,54.06
2018-09-25T07:41:31.715Z,54.01
2018-09-25T07:42:31.764Z,53.82
2018-09-25T07:43:32.038Z,54.09
2018-09-25T07:44:31.977Z,54.22
2018-09-25T07:45:31.748Z,54.5
2018-09-25T07:46:32.015Z,54.62
2018-09-25T07:47:32.337Z,54.71
2018-09-25T07:48:31.915Z,54.74
2018-09-25T07:49:31.909Z,54.8
2018-09-25T07:50:31.671Z,54.76
2018-09-25T07:51:31.926Z,54.84
2018-09-25T07:52:31.849Z,54.87
2018-09-25T07:53:31.852Z,54.89
2018-09-25T07:54:31.733Z,54.97
2018-09-25T07:55:31.993Z,55.05
2018-09-25T07:56:31.686Z,55
2018-09-25T07:57:31.876Z,55.03
2018-09-25T07:58:31.824Z,54.95
2018-09-25T07:59:32.013Z,55.03
2018-09-25T08:00:31.739Z,55.15
2018-09-25T08:01:31.850Z,55.19
2018-09-25T08:02:31.925Z,55.14
2018-09-25T08:03:31.941Z,55.19
2018-09-25T08:04:31.806Z,55.23
2018-09-25T08:05:31.838Z,55.19
2018-09-25T08:06:31.914Z,55.1
2018-09-25T08:07:31.846Z,55.1
2018-09-25T08:08:31.875Z,55.11
2018-09-25T08:09:32.184Z,55.2
2018-09-25T08:10:32.010Z,55.2
2018-09-25T08:11:31.851Z,55.27
2018-09-25T08:12:31.754Z,55.47
2018-09-25T08:13:31.953Z,55.4
2018-09-25T08:14:31.921Z,55.42
2018-09-25T08:15:32.196Z,55.56
2018-09-25T08:16:31.972Z,55.63
2018-09-25T08:17:31.777Z,55.57
2018-09-25T08:18:31.987Z,55.67
2018-09-25T08:19:31.955Z,55.67
2018-09-25T08:20:31.803Z,55.68
2018-09-25T08:21:31.884Z,55.65
2018-09-25T08:22:32.270Z,55.61
2018-09-25T08:23:31.879Z,55.69
2018-09-25T08:24:31.916Z,55.86
2018-09-25T08:25:31.958Z,55.82
2018-09-25T08:26:32.318Z,55.75
2018-09-25T08:27:31.925Z,55.78
2018-09-25T08:28:31.701Z,55.72
2018-09-25T08:29:32.061Z,55.66
2018-09-25T08:30:31.681Z,55.77
2018-09-25T08:31:31.730Z,55.7
2018-09-25T08:32:32.060Z,55.66
2018-09-25T08:33:31.763Z,55.58
2018-09-25T08:34:32.012Z,55.69
2018-09-25T08:35:32.075Z,55.64
2018-09-25T08:36:31.956Z,55.75
2018-09-25T08:37:31.754Z,55.69
2018-09-25T08:38:31.873Z,55.78
2018-09-25T08:39:32.349Z,55.86
2018-09-25T08:40:31.765Z,55.86
2018-09-25T08:41:31.875Z,55.87
2018-09-25T08:42:31.759Z,55.73
2018-09-25T08:43:31.933Z,55.85
2018-09-25T08:44:32.345Z,55.81
2018-09-25T08:45:31.901Z,55.84
2018-09-25T08:46:31.746Z,55.84
2018-09-25T08:47:31.880Z,55.91
2018-09-25T08:48:31.921Z,55.85
2018-09-25T08:49:32.088Z,55.93
2018-09-25T08:50:31.651Z,55.95
2018-09-25T08:51:32.293Z,55.84
2018-09-25T08:52:31.899Z,55.85
2018-09-25T08:53:32.309Z,55.85
2018-09-25T08:54:32.080Z,55.81
2018-09-25T08:55:31.919Z,56.01
2018-09-25T08:56:31.911Z,55.91
2018-09-25T08:57:31.697Z,55.99
2018-09-25T08:58:31.786Z,55.86
2018-09-25T08:59:31.959Z,55.99
2018-09-25T09:00:31.940Z,55.94
2018-09-25T09:01:31.679Z,55.97
2018-09-25T09:02:31.668Z,56.04
2018-09-25T09:03:32.172Z,56.05
2018-09-25T09:04:31.714Z,56.08
2018-09-25T09:05:31.960Z,56.15
2018-09-25T09:06:32.140Z,55.96
2018-09-25T09:07:31.735Z,55.86
2018-09-25T09:08:31.766Z,55.97
2018-09-25T09:09:32.036Z,55.13
2018-09-25T09:10:31.946Z,54.67
2018-09-25T09:11:31.756Z,55.15
2018-09-25T09:12:31.743Z,55.27
2018-09-25T09:13:32.021Z,55.43
2018-09-25T09:14:32.029Z,55.5
2018-09-25T09:15:31.963Z,55.47
2018-09-25T09:16:31.637Z,55.44
2018-09-25T09:17:31.688Z,55.37
2018-09-25T09:18:31.717Z,55.44
2018-09-25T09:19:31.706Z,55.45
2018-09-25T09:20:31.940Z,55.51
2018-09-25T09:21:32.027Z,55.51
2018-09-25T09:22:31.687Z,55.36
2018-09-25T09:23:31.686Z,55.6
2018-09-25T09:24:31.734Z,55.59
2018-09-25T09:25:31.716Z,55.71
2018-09-25T09:26:31.910Z,55.8
2018-09-25T09:27:32.048Z,55.78
2018-09-25T09:28:31.829Z,55.95
2018-09-25T09:29:31.837Z,55.91
2018-09-25T09:30:32.001Z,55.77
2018-09-25T09:31:31.756Z,55.84
2018-09-25T09:32:31.814Z,55.83
2018-09-25T09:33:31.747Z,55.9
2018-09-25T09:34:31.649Z,55.83
2018-09-25T09:35:31.789Z,55.85
2018-09-25T09:36:31.917Z,55.79
2018-09-25T09:37:31.710Z,55.83
2018-09-25T09:38:32.099Z,55.94
2018-09-25T09:39:32.051Z,56.02
2018-09-25T09:40:31.971Z,56.03
2018-09-25T09:41:32.457Z,56.06
2018-09-25T09:42:31.884Z,56.05
2018-09-25T09:43:31.728Z,56
2018-09-25T09:44:31.793Z,56.04
2018-09-25T09:45:31.653Z,56.11
2018-09-25T09:46:31.901Z,56.15
2018-09-25T09:47:31.702Z,56.2
2018-09-25T09:48:31.845Z,56.16
2018-09-25T09:49:31.946Z,56.23
2018-09-25T09:50:31.994Z,56.24
2018-09-25T09:51:31.909Z,56.21
2018-09-25T09:52:31.956Z,56.21
2018-09-25T09:53:32.044Z,56.24
2018-09-25T09:54:31.936Z,56.27
2018-09-25T09:55:31.810Z,56.25
2018-09-25T09:56:32.035Z,56.32
2018-09-25T09:57:31.787Z,56.39
2018-09-25T09:58:31.837Z,56.51
2018-09-25T09:59:31.888Z,56.36
2018-09-25T10:00:31.949Z,56.32
2018-09-25T10:01:32.126Z,56.26
2018-09-25T10:02:31.807Z,56.41
2018-09-25T10:03:31.675Z,56.37
2018-09-25T10:04:32.137Z,56.37
2018-09-25T10:05:31.961Z,56.48
2018-09-25T10:06:31.780Z,56.42
2018-09-25T10:07:32.205Z,56.47
2018-09-25T10:08:31.773Z,56.44
2018-09-25T10:09:31.944Z,56.57
2018-09-25T10:10:32.327Z,56.37
2018-09-25T10:11:31.810Z,56.55
2018-09-25T10:12:32.245Z,56.54
2018-09-25T10:13:31.589Z,56.52
2018-09-25T10:14:32.128Z,56.58
2018-09-25T10:15:31.884Z,56.56
2018-09-25T10:16:31.730Z,56.64
2018-09-25T10:17:32.088Z,56.75
2018-09-25T10:18:31.842Z,56.66
2018-09-25T10:19:31.742Z,56.7
2018-09-25T10:20:31.889Z,56.72
2018-09-25T10:21:31.960Z,56.8
2018-09-25T10:22:31.919Z,56.84
2018-09-25T10:23:31.849Z,56.77
2018-09-25T10:24:32.086Z,56.71
2018-09-25T10:25:31.790Z,56.86
2018-09-25T10:26:31.835Z,56.85
2018-09-25T10:27:32.146Z,56.85
2018-09-25T10:28:31.881Z,56.88
2018-09-25T10:29:32.091Z,56.8
2018-09-25T10:30:31.613Z,56.93
2018-09-25T10:31:32.119Z,56.8
2018-09-25T10:32:31.841Z,56.85
2018-09-25T10:33:32.221Z,56.88
2018-09-25T10:34:32.015Z,56.88
2018-09-25T10:35:31.740Z,56.86
2018-09-25T10:36:32.739Z,56.8
2018-09-25T10:37:31.929Z,56.73
2018-09-25T10:38:32.293Z,56.73
2018-09-25T10:39:31.820Z,56.85
2018-09-25T10:40:31.889Z,56.75
2018-09-25T10:41:32.152Z,56.95
2018-09-25T10:42:31.785Z,56.82
2018-09-25T10:43:31.714Z,56.92
2018-09-25T10:44:32.080Z,56.93
2018-09-25T10:45:32.078Z,56.85
2018-09-25T10:46:31.971Z,57.11
2018-09-25T10:47:31.897Z,56.87
2018-09-25T10:48:31.798Z,56.95
2018-09-25T10:49:31.910Z,56.94
2018-09-25T10:50:32.234Z,56.95
2018-09-25T10:51:31.923Z,56.9
2018-09-25T10:52:31.846Z,56.97
2018-09-25T10:53:31.622Z,56.93
2018-09-25T10:54:31.781Z,57.05
2018-09-25T10:55:32.011Z,56.99
2018-09-25T10:56:31.693Z,57.1
2018-09-25T10:57:31.766Z,57.17
2018-09-25T10:58:31.774Z,57.05
2018-09-25T10:59:31.963Z,56.99
2018-09-25T11:00:31.778Z,57.08
2018-09-25T11:01:31.876Z,57.07
2018-09-25T11:02:31.712Z,57.1
2018-09-25T11:03:31.745Z,57.05
2018-09-25T11:04:31.808Z,57.12
2018-09-25T11:05:31.639Z,57.14
2018-09-25T11:06:31.825Z,57.11
2018-09-25T11:07:32.033Z,57.33
2018-09-25T11:08:31.973Z,57.24
2018-09-25T11:09:31.654Z,57.28
2018-09-25T11:10:31.632Z,57.21
2018-09-25T11:11:31.747Z,57.09
2018-09-25T11:12:31.710Z,56.96
2018-09-25T11:13:31.826Z,57.08
2018-09-25T11:14:31.683Z,57.03
2018-09-25T11:15:31.668Z,57.05
2018-09-25T11:16:31.770Z,57
2018-09-25T11:17:31.931Z,56.94
2018-09-25T11:18:31.805Z,56.94
2018-09-25T11:19:31.810Z,56.88
2018-09-25T11:20:32.137Z,57
2018-09-25T11:21:31.732Z,56.94
2018-09-25T11:22:32.096Z,56.91
2018-09-25T11:23:31.726Z,56.91
2018-09-25T11:24:31.844Z,56.9
2018-09-25T11:25:32.233Z,56.98
2018-09-25T11:26:31.939Z,56.95
2018-09-25T11:27:31.959Z,57.02
2018-09-25T11:28:31.988Z,57.04
2018-09-25T11:29:31.909Z,56.92
2018-09-25T11:30:31.927Z,56.94
2018-09-25T11:31:32.107Z,56.78
2018-09-25T11:32:32.034Z,56.81
2018-09-25T11:33:31.752Z,56.75
2018-09-25T11:34:32.952Z,56.73
2018-09-25T11:35:31.650Z,56.76
2018-09-25T11:36:31.801Z,56.7
2018-09-25T11:37:31.756Z,56.54
2018-09-25T11:38:32.076Z,56.71
2018-09-25T11:39:31.767Z,56.7
2018-09-25T11:40:31.846Z,56.67
2018-09-25T11:41:31.969Z,56.75
2018-09-25T11:42:31.827Z,56.61
2018-09-25T11:43:32.144Z,56.64
2018-09-25T11:44:31.780Z,56.67
2018-09-25T11:45:31.819Z,56.58
2018-09-25T11:46:31.791Z,56.6
2018-09-25T11:47:32.017Z,56.62
2018-09-25T11:48:31.714Z,56.52
2018-09-25T11:49:31.754Z,56.59
2018-09-25T11:50:32.047Z,56.54
2018-09-25T11:51:31.885Z,56.71
2018-09-25T11:52:31.728Z,56.64
2018-09-25T11:53:31.755Z,56.69
2018-09-25T11:54:31.642Z,56.74
2018-09-25T11:55:31.978Z,56.56
2018-09-25T11:56:32.012Z,56.67
2018-09-25T11:57:31.666Z,56.59
2018-09-25T11:58:32.280Z,56.69
2018-09-25T11:59:31.747Z,56.6
2018-09-25T12:00:32.014Z,56.58
2018-09-25T12:01:31.990Z,56.65
2018-09-25T12:02:32.050Z,56.7
2018-09-25T12:03:31.621Z,56.61
2018-09-25T12:04:32.199Z,56.5
2018-09-25T12:05:31.681Z,56.57
2018-09-25T12:06:31.727Z,56.67
2018-09-25T12:07:31.733Z,56.65
2018-09-25T12:08:32.203Z,56.62
2018-09-25T12:09:31.986Z,56.62
2018-09-25T12:10:31.641Z,56.65
2018-09-25T12:11:31.750Z,56.65
2018-09-25T12:12:31.926Z,56.71
2018-09-25T12:13:32.025Z,56.64
2018-09-25T12:14:31.709Z,56.71
2018-09-25T12:15:31.964Z,56.7
2018-09-25T12:16:32.224Z,56.67
2018-09-25T12:17:31.910Z,56.57
2018-09-25T12:18:31.705Z,56.48
2018-09-25T12:19:32.252Z,56.46
2018-09-25T12:20:32.198Z,56.52
2018-09-25T12:21:31.745Z,56.64
2018-09-25T12:22:31.675Z,56.64
2018-09-25T12:23:31.933Z,56.53
2018-09-25T12:24:31.715Z,56.68
2018-09-25T12:25:31.928Z,56.74
2018-09-25T12:26:31.670Z,56.59
2018-09-25T12:27:31.603Z,56.59
2018-09-25T12:28:31.804Z,56.63
2018-09-25T12:29:31.617Z,56.78
2018-09-25T12:30:31.989Z,56.79
2018-09-25T12:31:31.663Z,56.68
2018-09-25T12:32:31.798Z,56.65
2018-09-25T12:33:31.720Z,56.61
2018-09-25T12:34:31.684Z,56.66
2018-09-25T12:35:31.752Z,56.63
2018-09-25T12:36:32.002Z,56.65
2018-09-25T12:37:31.750Z,56.71
2018-09-25T12:38:31.712Z,56.57
2018-09-25T12:39:31.638Z,56.73
2018-09-25T12:40:31.779Z,56.65
2018-09-25T12:41:31.614Z,56.79
2018-09-25T12:42:31.587Z,56.74
2018-09-25T12:43:31.610Z,56.76
2018-09-25T12:44:31.819Z,56.74
2018-09-25T12:45:31.913Z,56.78
2018-09-25T12:46:31.896Z,56.74
2018-09-25T12:47:32.190Z,56.88
2018-09-25T12:48:31.706Z,56.74
2018-09-25T12:49:31.737Z,56.75
2018-09-25T12:50:31.849Z,56.83
2018-09-25T12:51:31.928Z,56.78
2018-09-25T12:52:32.088Z,56.82
2018-09-25T12:53:31.780Z,56.82
2018-09-25T12:54:31.846Z,56.74
2018-09-25T12:55:31.870Z,56.86